Latest Weather Observations for Bankstown

IDN60901

Issued at 11:21 pm EST Saturday 27 August 2016 (issued every 10 minutes, with the page automatically refreshed every 10 minutes)

About weather observations | Map of Sydney area stations | Latest observations for Sydney area | Other Formats
Station Details ID: 066137 Name: BANKSTOWN AIRPORT AWS Lat: -33.92 Lon: 150.99 Height: 6.5 m
Data from the previous 72 hours. | See also: Recent months at Bankstown
Date/Time
EST
Temp
°C
App
Temp
°C
Dew
Point
°C
Rel
Hum
%
Delta-T
°C
Wind Press
QNH
hPa
Press
MSL
hPa
Rain since
9am
mm
Dir  Spd
km/h
Gust
km/h
Spd
kts
Gust
kts
27/11:00pm 8.5 7.6 6.0 84 1.1 CALM 0 0 0 0 1021.9 1021.9 0.0
27/10:30pm 8.4 7.6 6.4 87 0.9 CALM 0 0 0 0 1022.0 1022.0 0.0
27/10:00pm 8.7 7.9 6.7 87 0.9 CALM 0 7 0 4 1021.8 1021.8 0.0
27/09:30pm 8.6 7.6 5.4 80 1.4 CALM 0 6 0 3 1021.5 1021.5 0.0
27/09:00pm 10.3 9.7 7.5 83 1.3 CALM 0 6 0 3 1021.4 1021.4 0.0
27/08:30pm 11.7 10.8 7.6 76 2.0 WNW 2 6 1 3 1021.3 1021.3 0.0
27/08:00pm 11.9 9.9 7.2 73 2.3 NW 7 9 4 5 1021.5 1021.5 0.0
27/07:30pm 14.3 11.3 7.8 65 3.2 NNE 13 19 7 10 1020.9 1020.9 0.0
27/07:00pm 14.6 11.6 7.6 63 3.5 NNE 13 19 7 10 1020.4 1020.4 0.0
27/06:30pm 15.0 11.5 7.1 59 3.9 NNE 15 20 8 11 1020.1 1020.1 0.0
27/06:00pm 16.1 12.9 6.8 54 4.6 NE 13 20 7 11 1020.0 1020.0 0.0
27/05:30pm 17.2 15.0 3.1 39 6.5 N 4 7 2 4 1020.0 1020.0 0.0
27/05:00pm 18.2 15.5 2.5 35 7.2 NNW 6 11 3 6 1019.9 1019.9 0.0
27/04:30pm 18.7 16.0 2.9 35 7.3 NW 6 9 3 5 1019.7 1019.7 0.0
27/04:00pm 19.2 15.9 2.6 33 7.6 NNW 9 13 5 7 1019.7 1019.7 0.0
27/03:30pm 19.1 16.0 1.6 31 7.9 WNW 7 13 4 7 1019.8 1019.8 0.0
27/03:00pm 19.2 15.7 1.2 30 8.1 NW 9 17 5 9 1020.0 1020.0 0.0
27/02:30pm 18.6 14.3 0.7 30 7.9 NNW 13 19 7 10 1020.3 1020.3 0.0
27/02:00pm 18.6 15.2 1.6 32 7.6 NNW 9 17 5 9 1020.4 1020.4 0.0
27/01:30pm 18.2 14.0 1.7 33 7.4 NNW 13 20 7 11 1020.8 1020.8 0.0
27/01:00pm 18.0 14.4 2.7 36 7.0 NNW 11 17 6 9 1021.2 1021.2 0.0
27/12:30pm 17.6 14.4 3.1 38 6.7 NNW 9 19 5 10 1021.8 1021.8 0.0
27/12:00pm 16.6 13.5 3.7 42 5.9 NW 9 15 5 8 1022.5 1022.5 0.0
27/11:30am 15.9 12.5 4.0 45 5.5 NW 11 15 6 8 1023.0 1023.0 0.0
27/11:00am 15.4 12.3 3.5 45 5.4 WNW 9 13 5 7 1023.3 1023.3 0.0
27/10:30am 14.3 10.5 3.7 49 4.8 WSW 13 17 7 9 1023.5 1023.5 0.0
27/10:00am 14.1 10.7 4.1 51 4.6 W 11 19 6 10 1023.5 1023.5 0.0
27/09:30am 13.1 8.6 4.0 54 4.1 WSW 17 19 9 10 1023.6 1023.6 0.0
27/09:00am 11.8 7.2 3.8 58 3.5 WSW 17 24 9 13 1023.7 1023.7 0.0
27/08:30am 10.4 6.2 3.9 64 2.9 WSW 15 20 8 11 1023.6 1023.6 0.0
27/08:00am 9.2 6.1 3.6 68 2.4 WSW 9 15 5 8 1023.5 1023.5 0.0
27/07:30am 7.7 4.9 3.4 74 1.8 WNW 7 11 4 6 1023.4 1023.4 0.0
27/07:00am 6.2 3.0 3.2 81 1.2 WNW 9 11 5 6 1023.2 1023.2 0.0
27/06:30am 5.7 2.4 2.7 81 1.2 WNW 9 11 5 6 1023.1 1023.1 0.0
27/06:00am 5.3 2.1 2.8 84 1.0 WNW 9 9 5 5 1022.7 1022.7 0.0
27/05:30am 4.8 1.5 2.5 85 0.9 NW 9 11 5 6 1022.4 1022.4 0.0
27/05:00am 6.1 3.3 3.1 81 1.2 NW 7 9 4 5 1022.2 1022.2 0.0
27/04:30am 6.2 3.3 2.7 78 1.4 WNW 7 9 4 5 1022.0 1022.0 0.0
27/04:00am 6.5 3.3 2.9 78 1.5 WNW 9 11 5 6 1021.9 1021.9 0.0
27/03:30am 7.1 4.5 3.2 76 1.6 W 6 7 3 4 1021.9 1021.9 0.0
27/03:00am 7.0 3.8 3.3 77 1.6 W 9 11 5 6 1021.8 1021.8 0.0
27/02:30am 7.1 4.1 3.9 80 1.4 W 9 13 5 7 1021.9 1021.9 0.0
27/02:00am 8.0 5.5 4.9 81 1.4 SW 7 9 4 5 1021.9 1021.9 0.0
27/01:30am 8.2 5.9 5.5 83 1.2 SW 7 11 4 6 1022.1 1022.1 0.0
27/01:00am 7.9 5.2 5.4 84 1.1 WSW 9 13 5 7 1022.1 1022.1 0.0
27/12:30am 8.5 6.2 5.8 83 1.2 SSW 7 11 4 6 1022.1 1022.1 0.0
27/12:00am 8.6 6.6 6.2 85 1.1 WSW 6 9 3 5 1022.0 1022.0 0.0
 
Date/Time
EST
Temp
°C
App
Temp
°C
Dew
Point
°C
Rel
Hum
%
Delta-T
°C
Wind Press
QNH
hPa
Press
MSL
hPa
Rain since
9am
mm
Dir  Spd
km/h
Gust
km/h
Spd
kts
Gust
kts
26/11:30pm 9.1 7.2 6.9 86 1.0 WSW 6 9 3 5 1021.8 1021.8 0.0
26/11:00pm 9.8 8.4 7.2 84 1.2 WSW 4 7 2 4 1021.7 1021.7 0.0
26/10:30pm 9.9 9.4 7.7 86 1.1 CALM 0 0 0 0 1021.5 1021.5 0.0
26/10:00pm 10.9 10.3 7.6 80 1.6 CALM 0 0 0 0 1021.4 1021.4 0.0
26/09:30pm 11.7 10.0 8.2 79 1.7 S 7 9 4 5 1021.4 1021.4 0.0
26/09:00pm 11.8 9.5 7.5 75 2.1 S 9 9 5 5 1021.2 1021.2 0.0
26/08:30pm 12.5 9.8 7.4 71 2.5 SE 11 17 6 9 1021.0 1021.0 0.0
26/08:00pm 12.1 11.0 7.0 71 2.4 NNW 2 7 1 4 1020.7 1020.7 0.0
26/07:30pm 11.9 10.4 7.0 72 2.3 SW 4 9 2 5 1020.3 1020.3 0.0
26/07:00pm 13.0 11.0 6.4 64 3.1 SSW 6 7 3 4 1020.0 1020.0 0.0
26/06:30pm 13.2 10.3 6.3 63 3.3 S 11 17 6 9 1019.7 1019.7 0.0
26/06:00pm 14.1 10.8 6.5 60 3.6 SSE 13 20 7 11 1019.2 1019.2 0.0
26/05:30pm 14.3 9.3 6.4 59 3.8 SSE 22 28 12 15 1019.0 1019.0 0.0
26/05:00pm 14.6 10.1 5.9 56 4.1 SE 19 24 10 13 1018.7 1018.7 0.0
26/04:30pm 15.2 10.3 5.1 51 4.8 SSE 20 30 11 16 1018.5 1018.5 0.0
26/04:00pm 15.7 10.2 5.9 52 4.7 SE 24 28 13 15 1018.1 1018.1 0.0
26/03:30pm 15.9 11.2 5.2 49 5.1 SE 19 26 10 14 1017.7 1017.7 0.0
26/03:00pm 14.8 11.4 5.9 55 4.2 ESE 13 19 7 10 1017.6 1017.6 0.0
26/02:30pm 14.8 10.6 5.9 55 4.3 SE 17 28 9 15 1017.6 1017.6 0.0
26/02:00pm 15.5 9.7 4.3 47 5.2 SE 24 30 13 16 1017.7 1017.7 0.0
26/01:30pm 15.3 12.3 4.1 47 5.2 SSE 9 17 5 9 1017.8 1017.8 0.0
26/01:00pm 14.8 11.3 3.3 46 5.2 SSW 11 19 6 10 1018.0 1018.0 0.0
26/12:30pm 15.1 12.5 4.2 48 5.0 S 7 13 4 7 1018.3 1018.3 0.0
26/12:00pm 14.5 11.3 3.3 47 5.0 SSE 9 13 5 7 1018.6 1018.6 0.0
26/11:30am 15.3 12.5 5.2 51 4.8 SW 9 17 5 9 1018.9 1018.9 0.0
26/11:00am 13.7 8.8 4.0 52 4.4 SW 19 24 10 13 1019.1 1019.1 0.0
26/10:30am 13.6 8.7 4.2 53 4.3 WSW 19 26 10 14 1019.1 1019.1 0.0
26/10:00am 12.6 8.2 4.8 59 3.6 SW 17 24 9 13 1019.1 1019.1 0.0
26/09:30am 11.2 6.1 3.0 57 3.6 SW 19 26 10 14 1019.2 1019.2 0.0
26/09:00am 10.5 5.3 2.6 58 3.4 SW 19 30 10 16 1019.2 1019.2 0.2
26/08:30am 9.1 4.0 2.9 65 2.6 SW 19 26 10 14 1018.9 1018.9 0.2
26/08:00am 7.9 4.1 4.1 77 1.6 SW 13 19 7 10 1019.0 1019.0 0.2
26/07:30am 6.5 3.8 3.8 83 1.1 WSW 7 11 4 6 1019.0 1019.0 0.2
26/07:00am 5.5 3.4 3.7 88 0.8 SSW 4 6 2 3 1018.8 1018.8 0.2
26/06:30am 4.8 2.2 3.0 88 0.7 WSW 6 9 3 5 1018.2 1018.2 0.2
26/06:00am 4.8 1.6 3.0 88 0.7 W 9 13 5 7 1017.7 1017.7 0.2
26/05:30am 4.3 2.4 2.7 89 0.6 WNW 2 6 1 3 1017.5 1017.5 0.2
26/05:00am 4.7 1.9 2.2 84 1.0 NW 6 7 3 4 1017.1 1017.1 0.2
26/04:30am 5.4 3.8 2.6 82 1.1 CALM 0 0 0 0 1016.7 1016.7 0.2
26/04:00am 6.6 3.8 3.0 78 1.5 WNW 7 9 4 5 1016.2 1016.2 0.2
26/03:30am 6.6 3.8 3.0 78 1.5 WSW 7 11 4 6 1016.0 1016.0 0.2
26/03:00am 7.3 4.1 3.0 74 1.8 SW 9 11 5 6 1016.2 1016.2 0.2
26/02:30am 7.2 4.0 3.1 75 1.7 WSW 9 13 5 7 1016.1 1016.1 0.2
26/02:00am 6.2 3.3 2.5 77 1.5 SW 7 9 4 5 1016.2 1016.2 0.2
26/01:30am 7.2 4.4 2.9 74 1.8 SSW 7 9 4 5 1016.3 1016.3 0.2
26/01:00am 7.2 3.9 2.5 72 1.9 SSW 9 13 5 7 1016.3 1016.3 0.2
26/12:30am 7.3 4.9 2.0 69 2.2 S 4 9 2 5 1016.2 1016.2 0.2
26/12:00am 8.4 5.6 2.2 65 2.6 SSW 6 9 3 5 1015.9 1015.9 0.2
 
Date/Time
EST
Temp
°C
App
Temp
°C
Dew
Point
°C
Rel
Hum
%
Delta-T
°C
Wind Press
QNH
hPa
Press
MSL
hPa
Rain since
9am
mm
Dir  Spd
km/h
Gust
km/h
Spd
kts
Gust
kts
25/11:30pm 8.6 5.6 1.7 62 2.8 WSW 7 11 4 6 1015.5 1015.5 0.2
25/11:00pm 9.1 5.7 1.8 60 3.0 W 9 15 5 8 1015.2 1015.2 0.2
25/10:30pm 9.9 6.5 2.0 58 3.3 WSW 9 17 5 9 1015.0 1015.0 0.2
25/10:00pm 10.7 6.6 2.0 55 3.7 WSW 13 19 7 10 1014.8 1014.8 0.2
25/09:30pm 10.5 6.8 2.4 57 3.5 WSW 11 19 6 10 1014.9 1014.9 0.2
25/09:00pm 10.9 6.6 3.0 58 3.4 W 15 20 8 11 1014.6 1014.6 0.2
25/08:30pm 11.3 7.1 3.8 60 3.3 W 15 19 8 10 1014.4 1014.4 0.2
25/08:00pm 9.9 7.4 4.9 71 2.2 WNW 7 11 4 6 1014.1 1014.1 0.2
25/07:30pm 10.4 8.4 4.5 67 2.6 NW 4 7 2 4 1013.7 1013.7 0.2
25/07:00pm 10.9 8.9 4.4 64 2.9 WNW 4 9 2 5 1013.3 1013.3 0.2
25/06:30pm 13.1 11.6 2.9 50 4.5 CALM 0 0 0 0 1012.8 1012.8 0.2
25/06:00pm 13.3 10.1 3.1 50 4.5 W 9 13 5 7 1012.4 1012.4 0.2
25/05:30pm 14.7 10.8 3.2 46 5.2 WSW 13 19 7 10 1012.1 1012.1 0.2
25/05:00pm 15.8 10.4 2.6 41 5.9 WSW 20 28 11 15 1011.6 1011.6 0.2
25/04:30pm 15.9 11.3 3.7 44 5.6 SSW 17 24 9 13 1011.1 1011.1 0.2
25/04:00pm 16.4 12.4 4.8 46 5.5 S 15 22 8 12 1010.7 1010.7 0.2
25/03:30pm 16.7 12.6 4.1 43 5.9 SSW 15 22 8 12 1010.6 1010.6 0.2
25/03:00pm 16.4 13.0 3.8 43 5.8 SSW 11 19 6 10 1010.4 1010.4 0.2
25/02:30pm 16.3 12.9 4.0 44 5.7 SSW 11 17 6 9 1010.3 1010.3 0.2
25/02:00pm 16.4 13.0 5.7 49 5.2 WSW 13 17 7 9 1010.3 1010.3 0.2
25/01:30pm 16.5 12.3 5.8 49 5.2 WSW 17 26 9 14 1010.1 1010.1 0.2
25/01:00pm 15.9 11.1 5.5 50 5.0 SW 20 32 11 17 1010.2 1010.2 0.2
25/12:30pm 15.0 10.3 5.0 51 4.7 SW 19 28 10 15 1010.5 1010.5 0.2
25/12:00pm 14.8 10.1 6.1 56 4.2 WSW 20 32 11 17 1010.7 1010.7 0.2
25/11:30am 14.7 9.5 5.5 54 4.4 SSW 22 32 12 17 1010.9 1010.9 0.2
25/11:00am 13.9 8.7 5.5 57 4.0 WSW 22 33 12 18 1010.9 1010.9 0.2
25/10:30am 14.2 9.2 6.6 60 3.7 SW 22 33 12 18 1011.0 1011.0 0.2
25/10:00am 12.9 7.8 6.0 63 3.3 WSW 22 33 12 18 1011.0 1011.0 0.2
25/09:30am 12.3 6.8 5.9 65 3.0 WSW 24 35 13 19 1010.8 1010.8 0.2
25/09:00am 11.4 8.3 7.3 76 2.0 W 13 17 7 9 1010.7 1010.7 56.4
25/08:30am 10.6 7.4 6.7 77 1.8 WSW 13 19 7 10 1010.7 1010.7 56.4
25/08:00am 10.6 6.6 6.7 77 1.8 WSW 17 24 9 13 1010.5 1010.5 56.4
25/07:30am 9.6 6.3 6.5 81 1.4 WSW 13 17 7 9 1010.3 1010.3 56.4
25/07:00am 9.2 5.9 6.3 82 1.3 WSW 13 19 7 10 1009.8 1009.8 56.4
25/06:30am 8.9 5.6 6.2 83 1.2 W 13 19 7 10 1009.4 1009.4 56.4
25/06:00am 8.9 6.0 6.3 84 1.2 W 11 17 6 9 1009.1 1009.1 56.4
25/05:30am 9.0 6.4 6.3 83 1.2 WSW 9 13 5 7 1008.7 1008.7 56.4
25/05:00am 9.3 6.3 5.9 79 1.6 WSW 11 17 6 9 1008.4 1008.4 56.4
25/04:30am 9.4 5.3 6.1 80 1.5 WSW 17 22 9 12 1008.1 1008.1 56.4
25/04:00am 9.5 5.5 6.8 83 1.3 SW 17 22 9 12 1007.9 1007.9 56.4
25/03:30am 9.4 5.8 6.8 84 1.2 SW 15 22 8 12 1007.9 1007.9 56.4
25/03:00am 9.3 6.2 7.4 88 0.9 SW 13 20 7 11 1007.7 1007.7 56.4
25/02:30am 9.2 6.2 7.5 89 0.8 SW 13 20 7 11 1007.8 1007.8 56.4
25/02:00am 9.3 5.9 7.7 90 0.8 W 15 19 8 10 1007.9 1007.9 56.4
25/01:30am 9.1 6.1 7.7 91 0.7 SW 13 17 7 9 1007.8 1007.8 56.4
25/01:00am 9.1 6.1 7.9 92 0.6 WSW 13 19 7 10 1008.0 1008.0 56.4
25/12:30am 8.9 6.0 8.0 94 0.4 WSW 13 19 7 10 1007.9 1007.9 56.4
25/12:00am 9.1 6.6 8.2 94 0.4 SW 11 15 6 8 1007.9 1007.9 56.2
 
Date/Time
EST
Temp
°C
App
Temp
°C
Dew
Point
°C
Rel
Hum
%
Delta-T
°C
Wind Press
QNH
hPa
Press
MSL
hPa
Rain since
9am
mm
Dir  Spd
km/h
Gust
km/h
Spd
kts
Gust
kts
24/11:30pm 9.4 5.8 8.2 92 0.6 SSW 17 26 9 14 1007.9 1007.9 56.0

Latest Capital City Observations: Canberra | Sydney | Melbourne | Brisbane | Adelaide | Perth | Hobart | Darwin

Other Formats:

Comma delimited format used in spreadsheet applications
http://www.bom.gov.au/fwo/IDN60901/IDN60901.94765.axf

JavaScript Object Notation format (JSON) in row-major order
http://www.bom.gov.au/fwo/IDN60901/IDN60901.94765.json